Artie, West Virginia
Current Conditions -  °F | °C
As of 12:51 PM on Thursday 30 Oct 2014 (Local Time) from KBKW Reporting Station
Overcast Overcast  
Wind Chill:   Ceiling: 2300
Heat Index:   Visibility: 10mi
Dew Point: -1°   Wind: 8mph
Humidity: 65%   Direction: 360°N
Pressure: 30.1"   Gusts: NA
Location:  37.93°N, 81.36°W
Report Text: KBKW 301651Z AUTO 36007KT 10SM OVC023 06/M01 A3010 RMK AO2 SLP202 T00561006 TSNO
Loading
Personal Weather Stations






























Interactive Weather Map
Tropical Storm Tracking
New forecast layout! Learn more

10-Day Weather Forecast

Advertisements
Track Severe Weather on mobile